N124TL KJAC-KWYS
Flight info
| Callsign | N124TL |
|---|---|
| Flight time | 0h 31m |
| Altitude | 8500 |
| Route | VFR NORTH WEST |
| Aircraft | BE58/L-VGD/C |
Departure
| Time | 2026-04-25 21:24 |
|---|---|
| Airport | Jackson Hole Airport (KJAC) |
Arrival
| Time | 2026-04-25 21:55 |
|---|---|
| Airport | Yellowstone Airport (KWYS) |
| Time | Latitude | Longitude | Altitude | Speed | Heading |
|---|---|---|---|---|---|
| 2026-04-25 21:18 | 43.59815 | -110.73953 | 6416 ft | 0 kts | 19° |
| 2026-04-25 21:21 | 43.59870 | -110.73986 | 6417 ft | 22 kts | 319° |
| 2026-04-25 21:22 | 43.60046 | -110.73955 | 6419 ft | 34 kts | 18° |
| 2026-04-25 21:22 | 43.60321 | -110.73820 | 6423 ft | 47 kts | 19° |
| 2026-04-25 21:22 | 43.60617 | -110.73673 | 6428 ft | 40 kts | 19° |
| 2026-04-25 21:22 | 43.60857 | -110.73563 | 6433 ft | 24 kts | 1° |
| 2026-04-25 21:23 | 43.60932 | -110.73676 | 6433 ft | 16 kts | 216° |
| 2026-04-25 21:23 | 43.60598 | -110.73844 | 6428 ft | 85 kts | 201° |
| 2026-04-25 21:23 | 43.59944 | -110.74178 | 6587 ft | 112 kts | 201° |
| 2026-04-25 21:23 | 43.59181 | -110.74587 | 6917 ft | 120 kts | 202° |
| 2026-04-25 21:24 | 43.58391 | -110.75009 | 7251 ft | 124 kts | 202° |
| 2026-04-25 21:24 | 43.57578 | -110.75438 | 7598 ft | 126 kts | 204° |
| 2026-04-25 21:24 | 43.56987 | -110.76267 | 7924 ft | 125 kts | 249° |
| 2026-04-25 21:24 | 43.56979 | -110.77457 | 8268 ft | 125 kts | 279° |
| 2026-04-25 21:25 | 43.57191 | -110.78681 | 8333 ft | 145 kts | 284° |
| 2026-04-25 21:25 | 43.57840 | -110.79832 | 8309 ft | 167 kts | 327° |
| 2026-04-25 21:25 | 43.59018 | -110.80190 | 8301 ft | 184 kts | 3° |
| 2026-04-25 21:25 | 43.60312 | -110.79883 | 8287 ft | 192 kts | 9° |
| 2026-04-25 21:26 | 43.61640 | -110.79504 | 8280 ft | 196 kts | 10° |
| 2026-04-25 21:26 | 43.63005 | -110.79116 | 8273 ft | 199 kts | 10° |
| 2026-04-25 21:26 | 43.64355 | -110.78737 | 8287 ft | 199 kts | 9° |
| 2026-04-25 21:26 | 43.65651 | -110.78117 | 8271 ft | 200 kts | 36° |
| 2026-04-25 21:27 | 43.66636 | -110.76753 | 8278 ft | 201 kts | 47° |
| 2026-04-25 21:27 | 43.67571 | -110.75301 | 8279 ft | 196 kts | 48° |
| 2026-04-25 21:27 | 43.68527 | -110.73997 | 8281 ft | 191 kts | 34° |
| 2026-04-25 21:27 | 43.69641 | -110.72998 | 8294 ft | 188 kts | 31° |
| 2026-04-25 21:28 | 43.70749 | -110.72042 | 8291 ft | 187 kts | 31° |
| 2026-04-25 21:28 | 43.71864 | -110.71084 | 8289 ft | 187 kts | 31° |
| 2026-04-25 21:28 | 43.72964 | -110.70134 | 8290 ft | 187 kts | 31° |
| 2026-04-25 21:28 | 43.74078 | -110.69174 | 8289 ft | 186 kts | 31° |
| 2026-04-25 21:29 | 43.75172 | -110.68230 | 8294 ft | 186 kts | 31° |
| 2026-04-25 21:29 | 43.76278 | -110.67275 | 8290 ft | 186 kts | 30° |
| 2026-04-25 21:29 | 43.77369 | -110.66332 | 8290 ft | 186 kts | 31° |
| 2026-04-25 21:29 | 43.78481 | -110.65369 | 8287 ft | 186 kts | 31° |
| 2026-04-25 21:30 | 43.79577 | -110.64423 | 8287 ft | 185 kts | 30° |
| 2026-04-25 21:30 | 43.80681 | -110.63467 | 8289 ft | 185 kts | 31° |
| 2026-04-25 21:30 | 43.81780 | -110.62544 | 8286 ft | 185 kts | 24° |
| 2026-04-25 21:30 | 43.82607 | -110.62339 | 8288 ft | 181 kts | 354° |
| 2026-04-25 21:31 | 43.84243 | -110.62897 | 8284 ft | 180 kts | 341° |
| 2026-04-25 21:31 | 43.85450 | -110.63394 | 8271 ft | 181 kts | 340° |
| 2026-04-25 21:31 | 43.86655 | -110.63890 | 8269 ft | 181 kts | 341° |
| 2026-04-25 21:31 | 43.87857 | -110.64379 | 8271 ft | 180 kts | 341° |
| 2026-04-25 21:32 | 43.89061 | -110.64870 | 8276 ft | 180 kts | 341° |
| 2026-04-25 21:32 | 43.90282 | -110.65359 | 8267 ft | 180 kts | 341° |
| 2026-04-25 21:32 | 43.91483 | -110.65841 | 8264 ft | 180 kts | 341° |
| 2026-04-25 21:32 | 43.92683 | -110.66332 | 8271 ft | 180 kts | 341° |
| 2026-04-25 21:33 | 43.93888 | -110.66830 | 8281 ft | 179 kts | 340° |
| 2026-04-25 21:33 | 43.95105 | -110.67333 | 8289 ft | 180 kts | 341° |
| 2026-04-25 21:33 | 43.96314 | -110.67836 | 8289 ft | 180 kts | 341° |
| 2026-04-25 21:33 | 43.97516 | -110.68327 | 8346 ft | 176 kts | 341° |
| 2026-04-25 21:34 | 43.98644 | -110.68782 | 8598 ft | 163 kts | 340° |
| 2026-04-25 21:34 | 43.99712 | -110.69205 | 8795 ft | 155 kts | 341° |
| 2026-04-25 21:34 | 44.00740 | -110.69607 | 8945 ft | 149 kts | 341° |
| 2026-04-25 21:34 | 44.01738 | -110.69991 | 9083 ft | 146 kts | 341° |
| 2026-04-25 21:35 | 44.02703 | -110.70359 | 9223 ft | 143 kts | 341° |
| 2026-04-25 21:35 | 44.03674 | -110.70728 | 9276 ft | 147 kts | 341° |
| 2026-04-25 21:35 | 44.04681 | -110.71107 | 9280 ft | 154 kts | 341° |
| 2026-04-25 21:35 | 44.05740 | -110.71483 | 9273 ft | 161 kts | 345° |
| 2026-04-25 21:36 | 44.06881 | -110.71733 | 9261 ft | 166 kts | 347° |
| 2026-04-25 21:36 | 44.08033 | -110.71980 | 9255 ft | 169 kts | 348° |
| 2026-04-25 21:36 | 44.09215 | -110.72243 | 9253 ft | 172 kts | 347° |
| 2026-04-25 21:36 | 44.10406 | -110.72506 | 9241 ft | 175 kts | 348° |
| 2026-04-25 21:37 | 44.11644 | -110.72787 | 9231 ft | 178 kts | 347° |
| 2026-04-25 21:37 | 44.12461 | -110.72974 | 9225 ft | 179 kts | 348° |
| 2026-04-25 21:37 | 44.14097 | -110.72755 | 9220 ft | 185 kts | 30° |
| 2026-04-25 21:37 | 44.14982 | -110.71426 | 9219 ft | 187 kts | 54° |
| 2026-04-25 21:38 | 44.15727 | -110.69945 | 9217 ft | 187 kts | 55° |
| 2026-04-25 21:38 | 44.16465 | -110.68461 | 9218 ft | 187 kts | 54° |
| 2026-04-25 21:38 | 44.17216 | -110.66952 | 9220 ft | 187 kts | 54° |
| 2026-04-25 21:38 | 44.18004 | -110.65511 | 9209 ft | 187 kts | 39° |
| 2026-04-25 21:39 | 44.19180 | -110.64798 | 9224 ft | 184 kts | 13° |
| 2026-04-25 21:39 | 44.20422 | -110.64383 | 9220 ft | 184 kts | 11° |
| 2026-04-25 21:39 | 44.21691 | -110.63978 | 9217 ft | 185 kts | 11° |
| 2026-04-25 21:39 | 44.22930 | -110.63580 | 9218 ft | 185 kts | 11° |
| 2026-04-25 21:40 | 44.24213 | -110.63268 | 9225 ft | 184 kts | 5° |
| 2026-04-25 21:40 | 44.25490 | -110.63043 | 9222 ft | 184 kts | 5° |
| 2026-04-25 21:40 | 44.26773 | -110.62820 | 9216 ft | 184 kts | 5° |
| 2026-04-25 21:40 | 44.28038 | -110.62598 | 9215 ft | 184 kts | 4° |
| 2026-04-25 21:41 | 44.29306 | -110.62376 | 9219 ft | 183 kts | 5° |
| 2026-04-25 21:41 | 44.30579 | -110.62151 | 9220 ft | 183 kts | 5° |
| 2026-04-25 21:41 | 44.31858 | -110.62037 | 9211 ft | 181 kts | 347° |
| 2026-04-25 21:41 | 44.32999 | -110.62717 | 9217 ft | 178 kts | 326° |
| 2026-04-25 21:42 | 44.34054 | -110.63638 | 9210 ft | 178 kts | 325° |
| 2026-04-25 21:42 | 44.35094 | -110.64563 | 9330 ft | 170 kts | 325° |
| 2026-04-25 21:42 | 44.36053 | -110.65408 | 9546 ft | 159 kts | 324° |
| 2026-04-25 21:42 | 44.36968 | -110.66205 | 9711 ft | 151 kts | 325° |
| 2026-04-25 21:43 | 44.37849 | -110.66968 | 9846 ft | 146 kts | 324° |
| 2026-04-25 21:43 | 44.38702 | -110.67696 | 9964 ft | 141 kts | 325° |
| 2026-04-25 21:43 | 44.39536 | -110.68411 | 10081 ft | 138 kts | 324° |
| 2026-04-25 21:43 | 44.40347 | -110.69105 | 10198 ft | 136 kts | 325° |
| 2026-04-25 21:44 | 44.41180 | -110.69817 | 10195 ft | 143 kts | 324° |
| 2026-04-25 21:44 | 44.41922 | -110.70757 | 10186 ft | 145 kts | 309° |
| 2026-04-25 21:44 | 44.43292 | -110.72926 | 10179 ft | 149 kts | 307° |
| 2026-04-25 21:45 | 44.43661 | -110.74241 | 10184 ft | 146 kts | 274° |
| 2026-04-25 21:45 | 44.43719 | -110.75196 | 10182 ft | 147 kts | 271° |
| 2026-04-25 21:45 | 44.43796 | -110.77119 | 10179 ft | 150 kts | 271° |
| 2026-04-25 21:45 | 44.43850 | -110.78610 | 10182 ft | 152 kts | 271° |
| 2026-04-25 21:46 | 44.43907 | -110.80102 | 10178 ft | 154 kts | 271° |
| 2026-04-25 21:46 | 44.43966 | -110.81619 | 10173 ft | 156 kts | 271° |
| 2026-04-25 21:46 | 44.44027 | -110.83144 | 10172 ft | 157 kts | 271° |
| 2026-04-25 21:46 | 44.44355 | -110.84589 | 10167 ft | 162 kts | 306° |
| 2026-04-25 21:47 | 44.45224 | -110.85626 | 10166 ft | 165 kts | 320° |
| 2026-04-25 21:47 | 44.46156 | -110.86565 | 10165 ft | 165 kts | 321° |
| 2026-04-25 21:47 | 44.47092 | -110.87512 | 10165 ft | 165 kts | 321° |
| 2026-04-25 21:47 | 44.48032 | -110.88464 | 10171 ft | 165 kts | 321° |
| 2026-04-25 21:48 | 44.48968 | -110.89416 | 10175 ft | 166 kts | 321° |
| 2026-04-25 21:48 | 44.49902 | -110.90375 | 10177 ft | 166 kts | 321° |
| 2026-04-25 21:48 | 44.50866 | -110.91353 | 9982 ft | 176 kts | 321° |
| 2026-04-25 21:48 | 44.51880 | -110.92387 | 9756 ft | 184 kts | 321° |
| 2026-04-25 21:49 | 44.52929 | -110.93456 | 9549 ft | 188 kts | 321° |
| 2026-04-25 21:49 | 44.53990 | -110.94530 | 9339 ft | 187 kts | 321° |
| 2026-04-25 21:49 | 44.55056 | -110.95602 | 9126 ft | 186 kts | 322° |
| 2026-04-25 21:49 | 44.56085 | -110.96645 | 9069 ft | 177 kts | 321° |
| 2026-04-25 21:50 | 44.57082 | -110.97649 | 9089 ft | 176 kts | 321° |
| 2026-04-25 21:50 | 44.58096 | -110.98668 | 9095 ft | 181 kts | 321° |
| 2026-04-25 21:50 | 44.59116 | -110.99696 | 9093 ft | 184 kts | 321° |
| 2026-04-25 21:50 | 44.60157 | -111.00750 | 9094 ft | 184 kts | 321° |
| 2026-04-25 21:51 | 44.61218 | -111.01814 | 9104 ft | 185 kts | 321° |
| 2026-04-25 21:51 | 44.62284 | -111.02882 | 8838 ft | 191 kts | 321° |
| 2026-04-25 21:51 | 44.63337 | -111.03947 | 8377 ft | 184 kts | 320° |
| 2026-04-25 21:51 | 44.64276 | -111.05098 | 7939 ft | 175 kts | 311° |
| 2026-04-25 21:52 | 44.65110 | -111.06338 | 7807 ft | 168 kts | 309° |
| 2026-04-25 21:52 | 44.65876 | -111.07510 | 7824 ft | 161 kts | 308° |
| 2026-04-25 21:52 | 44.66639 | -111.08725 | 7669 ft | 170 kts | 313° |
| 2026-04-25 21:52 | 44.67726 | -111.09372 | 7678 ft | 175 kts | 355° |
| 2026-04-25 21:53 | 44.68924 | -111.09056 | 7622 ft | 178 kts | 16° |
| 2026-04-25 21:53 | 44.70056 | -111.08328 | 7613 ft | 177 kts | 28° |
| 2026-04-25 21:53 | 44.71106 | -111.07518 | 7469 ft | 165 kts | 21° |
| 2026-04-25 21:53 | 44.72051 | -111.07768 | 7408 ft | 129 kts | 304° |
| 2026-04-25 21:54 | 44.72471 | -111.08762 | 7357 ft | 102 kts | 272° |
| 2026-04-25 21:54 | 44.72125 | -111.09496 | 7141 ft | 101 kts | 207° |
| 2026-04-25 21:54 | 44.71469 | -111.09943 | 7005 ft | 105 kts | 207° |
| 2026-04-25 21:54 | 44.70813 | -111.10400 | 6890 ft | 107 kts | 208° |
| 2026-04-25 21:55 | 44.70144 | -111.10860 | 6726 ft | 102 kts | 206° |
| 2026-04-25 21:55 | 44.69532 | -111.11282 | 6640 ft | 87 kts | 207° |
| 2026-04-25 21:55 | 44.69184 | -111.11513 | 6637 ft | 12 kts | 171° |
| 2026-04-25 21:55 | 44.69099 | -111.11423 | 6637 ft | 21 kts | 195° |
| 2026-04-25 21:56 | 44.68932 | -111.11527 | 6639 ft | 25 kts | 207° |
| 2026-04-25 21:56 | 44.68851 | -111.11488 | 6639 ft | 18 kts | 120° |
| 2026-04-25 21:56 | 44.68832 | -111.11434 | 6640 ft | 0 kts | 116° |
| 2026-04-25 21:56 | 44.68832 | -111.11435 | 6640 ft | 0 kts | 116° |
| 2026-04-25 21:57 | 44.68832 | -111.11434 | 6640 ft | 0 kts | 116° |
| 2026-04-25 21:57 | 44.68832 | -111.11435 | 6640 ft | 0 kts | 116° |
| 2026-04-25 21:57 | 44.68832 | -111.11434 | 6640 ft | 0 kts | 116° |
| 2026-04-25 21:58 | 44.68832 | -111.11435 | 6640 ft | 0 kts | 116° |
| 2026-04-25 21:58 | 44.68832 | -111.11434 | 6640 ft | 0 kts | 116° |
| 2026-04-25 21:58 | 44.68832 | -111.11435 | 6640 ft | 0 kts | 116° |
| 2026-04-25 21:59 | 44.68832 | -111.11434 | 6640 ft | 0 kts | 116° |
| 2026-04-25 21:59 | 44.68832 | -111.11435 | 6640 ft | 0 kts | 116° |
| 2026-04-25 22:00 | 44.68832 | -111.11434 | 6640 ft | 0 kts | 116° |
| 2026-04-25 22:00 | 44.68832 | -111.11435 | 6640 ft | 0 kts | 116° |
| 2026-04-25 22:01 | 44.68832 | -111.11434 | 6640 ft | 0 kts | 116° |
| 2026-04-25 22:01 | 44.68832 | -111.11435 | 6640 ft | 0 kts | 116° |
| 2026-04-25 22:01 | 44.68832 | -111.11434 | 6640 ft | 0 kts | 116° |
| 2026-04-25 22:02 | 44.68832 | -111.11435 | 6640 ft | 0 kts | 116° |
| 2026-04-25 22:02 | 44.68832 | -111.11434 | 6640 ft | 0 kts | 116° |